Time;durP1;ratioP1;P1;durP2;ratioP2;P2;SDS_P1;SDS_P2;PMS_P1;PMS_P2;Temp;Humidity;BMP_temperature;BMP_pressure;BME280_temperature;BME280_humidity;BME280_pressure;Samples;Min_cycle;Max_cycle;Signal;HPM_P1;HPM_P2
2022/12/31 00:00:20;;;;;;;139.27;83.53;;;;;;;1.65;78.21;101361.30;123650;1099;104271;-79
2022/12/31 00:03:11;;;;;;;149.97;85.83;;;;;;;1.65;78.24;101362.98;123655;1098;104351;-79
2022/12/31 00:05:43;;;;;;;146.43;88.40;;;;;;;1.67;78.48;101366.59;123635;1099;104303;-79
2022/12/31 00:08:14;;;;;;;158.93;93.60;;;;;;;1.68;78.28;101365.84;123677;1098;104249;-79
2022/12/31 00:10:45;;;;;;;156.43;92.27;;;;;;;1.68;78.04;101366.73;123597;1099;104421;-79
2022/12/31 00:13:17;;;;;;;152.07;93.87;;;;;;;1.67;77.99;101375.30;123611;1099;104347;-80
2022/12/31 00:15:48;;;;;;;154.30;90.27;;;;;;;1.65;78.30;101379.41;123350;1099;104284;-79
2022/12/31 00:18:19;;;;;;;141.65;85.80;;;;;;;1.57;78.52;101373.61;123610;1099;104248;-79
2022/12/31 00:20:50;;;;;;;136.67;81.50;;;;;;;1.51;78.64;101380.84;123554;1099;104248;-80
2022/12/31 00:23:22;;;;;;;135.35;80.60;;;;;;;1.50;78.27;101385.88;123615;1099;104271;-79
2022/12/31 00:25:53;;;;;;;140.07;83.43;;;;;;;1.51;78.14;101392.84;123562;1099;104366;-80
2022/12/31 00:28:24;;;;;;;129.00;77.30;;;;;;;1.48;78.24;101392.58;123681;1099;104261;-79
2022/12/31 00:30:55;;;;;;;131.20;79.37;;;;;;;1.42;78.25;101388.70;123594;1099;104297;-79
2022/12/31 00:33:26;;;;;;;132.97;81.90;;;;;;;1.42;78.46;101392.98;123604;1099;104242;-79
2022/12/31 00:36:06;;;;;;;132.60;77.53;;;;;;;1.41;78.55;101385.98;123596;1099;104296;-79
2022/12/31 00:38:38;;;;;;;130.03;76.23;;;;;;;1.41;78.62;101388.57;123652;1099;104335;-80
2022/12/31 00:41:09;;;;;;;132.47;80.17;;;;;;;1.41;78.35;101397.22;123774;1099;104293;-79
2022/12/31 00:43:41;;;;;;;132.70;78.10;;;;;;;1.41;78.66;101394.64;123639;1098;104706;-80
2022/12/31 00:46:14;;;;;;;126.93;75.67;;;;;;;1.41;78.42;101391.16;123632;1099;104303;-79
2022/12/31 00:48:46;;;;;;;132.17;77.67;;;;;;;1.39;78.30;101398.78;123730;1098;104310;-80
2022/12/31 00:51:19;;;;;;;132.43;76.83;;;;;;;1.38;78.74;101409.00;123830;1099;104296;-80
2022/12/31 00:53:51;;;;;;;125.10;76.67;;;;;;;1.33;78.61;101412.87;123640;1099;104254;-79
2022/12/31 00:56:24;;;;;;;138.03;80.17;;;;;;;1.31;78.62;101415.32;123565;1099;104281;-80
2022/12/31 00:58:55;;;;;;;127.27;74.53;;;;;;;1.32;78.92;101417.11;123701;1099;104351;-79
2022/12/31 01:01:29;;;;;;;134.57;78.20;;;;;;;1.28;78.83;101424.47;123616;1099;104399;-79
2022/12/31 01:04:03;;;;;;;127.22;78.15;;;;;;;1.26;78.53;101424.33;123646;1099;104306;-79
2022/12/31 01:06:33;;;;;;;;;;;;;;;1.24;79.41;101421.61;123646;1099;104383;-79
2022/12/31 01:09:05;;;;;;;127.60;74.27;;;;;;;1.25;78.62;101412.20;123625;1099;104351;-79
2022/12/31 01:11:36;;;;;;;122.80;72.60;;;;;;;1.25;79.18;101413.09;123706;1099;104275;-80
2022/12/31 01:14:11;;;;;;;132.87;72.77;;;;;;;1.21;79.14;101413.59;123624;1099;104404;-80
2022/12/31 01:16:45;;;;;;;128.05;73.60;;;;;;;1.18;79.22;101417.59;123662;1099;104389;-79
2022/12/31 01:19:20;;;;;;;101.10;61.30;;;;;;;1.18;78.72;101418.48;123593;1099;104347;-79
2022/12/31 01:21:52;;;;;;;128.80;73.80;;;;;;;1.20;79.24;101413.45;123589;1099;104392;-80
2022/12/31 01:24:24;;;;;;;127.67;75.13;;;;;;;1.19;79.18;101409.08;123707;1099;104204;-79
2022/12/31 01:26:56;;;;;;;125.50;73.50;;;;;;;1.18;78.92;101408.14;123638;1099;104354;-79
2022/12/31 01:29:28;;;;;;;129.60;72.77;;;;;;;1.18;78.88;101404.66;123677;1099;104313;-79
2022/12/31 01:31:59;;;;;;;129.00;74.10;;;;;;;1.15;79.31;101410.46;123676;1099;104348;-80
2022/12/31 01:34:31;;;;;;;127.93;74.20;;;;;;;1.15;79.14;101414.73;123572;1099;104249;-79
2022/12/31 01:37:02;;;;;;;133.03;79.63;;;;;;;1.15;79.34;101422.49;123582;1098;104386;-79
2022/12/31 01:39:33;;;;;;;134.67;78.73;;;;;;;1.14;78.91;101419.02;123582;1099;104392;-79
2022/12/31 01:42:05;;;;;;;138.07;82.80;;;;;;;1.10;78.99;101414.33;123558;1099;104706;-79
2022/12/31 01:44:55;;;;;;;150.07;80.93;;;;;;;1.11;79.44;101415.23;123568;1099;104201;-79
2022/12/31 01:47:37;;;;;;;144.57;84.43;;;;;;;1.10;79.07;101413.44;123694;1098;104274;-79
2022/12/31 01:50:16;;;;;;;143.33;81.07;;;;;;;1.10;79.13;101403.99;123628;1099;104351;-79
2022/12/31 01:52:50;;;;;;;130.20;80.23;;;;;;;1.10;79.10;101398.82;123583;1099;104310;-79
2022/12/31 01:55:28;;;;;;;124.03;70.93;;;;;;;1.08;79.29;101406.44;123490;1099;104275;-79
2022/12/31 01:58:03;;;;;;;127.53;73.17;;;;;;;1.02;79.87;101413.66;123620;1099;104393;-79
2022/12/31 02:00:35;;;;;;;123.73;73.33;;;;;;;0.98;79.60;101421.00;123541;1099;104245;-79
2022/12/31 02:03:07;;;;;;;131.33;76.27;;;;;;;0.89;80.15;101421.11;123562;1099;104271;-79
2022/12/31 02:05:44;;;;;;;134.53;78.80;;;;;;;0.78;80.30;101424.39;123617;1099;104459;-79
2022/12/31 02:08:16;;;;;;;131.57;75.60;;;;;;;0.69;79.53;101433.14;123615;1099;104395;-80
2022/12/31 02:10:47;;;;;;;129.40;75.90;;;;;;;0.67;79.75;101437.27;123590;1099;104248;-79
2022/12/31 02:13:18;;;;;;;129.00;77.47;;;;;;;0.66;79.62;101432.86;123547;1099;104275;-80
2022/12/31 02:15:57;;;;;;;130.87;77.40;;;;;;;0.67;79.68;101442.44;123651;1099;104245;-79
2022/12/31 02:18:37;;;;;;;134.83;78.53;;;;;;;0.66;79.59;101431.96;123674;1099;104225;-79
2022/12/31 02:21:41;;;;;;;126.33;76.07;;;;;;;0.66;79.62;101440.61;123163;1099;104287;-79
2022/12/31 02:24:42;;;;;;;134.23;75.90;;;;;;;0.67;79.88;101442.44;123582;1098;104307;-79
2022/12/31 02:27:21;;;;;;;126.20;76.47;;;;;;;0.68;79.55;101433.00;123335;1102;104335;-79
2022/12/31 02:30:14;;;;;;;129.03;75.27;;;;;;;0.69;79.75;101440.89;123584;1099;104277;-79
2022/12/31 02:32:56;;;;;;;130.43;75.20;;;;;;;0.69;79.74;101435.72;123557;1099;104245;-81
2022/12/31 02:35:33;;;;;;;128.17;75.90;;;;;;;0.69;79.56;101443.47;123594;1098;104453;-79
2022/12/31 02:38:10;;;;;;;126.33;73.53;;;;;;;0.68;79.54;101443.33;123576;1099;104259;-79
2022/12/31 02:40:41;;;;;;;128.80;71.83;;;;;;;0.66;79.88;101443.19;123537;1099;104255;-80
2022/12/31 02:43:13;;;;;;;122.90;72.97;;;;;;;0.64;79.80;101439.58;123575;1099;104351;-79
2022/12/31 02:45:48;;;;;;;119.03;71.70;;;;;;;0.62;79.35;101438.50;123519;1099;104409;-79
2022/12/31 02:48:38;;;;;;;126.50;71.90;;;;;;;0.60;79.51;101434.89;123522;1099;104309;-79
2022/12/31 02:51:27;;;;;;;120.27;72.13;;;;;;;0.58;79.87;101438.09;123569;1099;104243;-79
2022/12/31 02:54:18;;;;;;;123.43;72.77;;;;;;;0.58;79.67;101439.02;123562;1099;104351;-79
2022/12/31 02:57:05;;;;;;;118.17;70.80;;;;;;;0.59;79.94;101433.06;123313;1099;104239;-79
2022/12/31 03:02:33;;;;;;;120.83;70.73;;;;;;;0.63;79.86;101448.08;123537;1099;104296;-80
2022/12/31 03:05:07;;;;;;;124.20;71.47;;;;;;;0.62;79.76;101447.94;123560;1099;104303;-79
2022/12/31 03:07:40;;;;;;;122.55;73.45;;;;;;;0.59;79.87;101445.98;123336;1099;104284;-79
2022/12/31 03:10:12;;;;;;;123.73;72.70;;;;;;;0.58;79.71;101438.09;123520;1099;104274;-79
2022/12/31 03:12:47;;;;;;;126.13;72.50;;;;;;;0.54;80.02;101437.81;123626;1099;104508;-79
2022/12/31 03:15:21;;;;;;;131.47;75.60;;;;;;;0.52;80.12;101449.69;123491;1099;104748;-79
2022/12/31 03:17:59;;;;;;;123.25;73.28;;;;;;;0.51;80.45;101449.55;123609;1098;104376;-79
2022/12/31 03:23:27;;;;;;;123.10;71.83;;;;;;;0.51;79.77;101449.55;123146;1099;104245;-79
2022/12/31 03:25:59;;;;;;;122.17;70.50;;;;;;;0.52;80.10;101447.11;123529;1099;104421;-79
2022/12/31 03:28:31;;;;;;;117.00;67.03;;;;;;;0.53;79.89;101458.33;123445;1099;104287;-79
2022/12/31 03:31:04;;;;;;;118.40;69.53;;;;;;;0.51;80.09;101458.23;123540;1099;104357;-79
2022/12/31 03:33:38;;;;;;;116.65;67.40;;;;;;;0.50;80.22;101458.98;123529;1098;104296;-79
2022/12/31 03:36:13;;;;;;;108.70;65.80;;;;;;;0.53;80.13;101458.33;123499;1099;104246;-79
2022/12/31 03:38:45;;;;;;;109.93;64.83;;;;;;;0.52;80.18;101462.60;123517;1099;104219;-79
2022/12/31 03:41:16;;;;;;;112.23;65.13;;;;;;;0.52;80.12;101462.60;123480;1099;107988;-80
2022/12/31 03:43:47;;;;;;;113.63;65.53;;;;;;;0.51;80.23;101458.23;123559;1099;104242;-79
2022/12/31 03:46:18;;;;;;;114.93;64.63;;;;;;;0.52;80.04;101453.95;123491;1099;104293;-79
2022/12/31 03:48:50;;;;;;;109.63;63.40;;;;;;;0.51;80.21;101465.05;123518;1099;104351;-79
2022/12/31 03:51:21;;;;;;;112.53;66.93;;;;;;;0.49;80.52;101469.17;123444;1099;104698;-79
2022/12/31 03:53:52;;;;;;;115.70;66.87;;;;;;;0.46;80.16;101464.63;123469;1098;104317;-79
2022/12/31 03:56:23;;;;;;;117.97;67.33;;;;;;;0.45;79.86;101464.48;123492;1099;104249;-79
2022/12/31 03:58:55;;;;;;;114.03;67.03;;;;;;;0.45;80.45;101465.41;123472;1098;104351;-79
2022/12/31 04:01:27;;;;;;;111.97;66.20;;;;;;;0.46;80.79;101466.31;123483;1099;104214;-78
2022/12/31 04:03:58;;;;;;;113.10;64.85;;;;;;;0.43;80.27;101466.03;123513;1099;104373;-79
2022/12/31 04:06:29;;;;;;;110.27;62.30;;;;;;;0.38;80.17;101480.20;123495;1099;104309;-79
2022/12/31 04:09:01;;;;;;;111.43;61.43;;;;;;;0.31;80.36;101477.05;123497;1099;104275;-79
2022/12/31 04:11:32;;;;;;;96.60;55.80;;;;;;;0.26;80.38;101491.19;123511;1099;104293;-79
2022/12/31 04:14:05;;;;;;;100.13;55.47;;;;;;;0.23;80.53;101483.16;123531;1099;104351;-80
2022/12/31 04:16:36;;;;;;;95.77;54.50;;;;;;;0.21;80.80;101483.80;123445;1099;104466;-79
2022/12/31 04:19:07;;;;;;;92.00;52.23;;;;;;;0.20;80.16;101488.03;123510;1099;104210;-79
2022/12/31 04:21:38;;;;;;;96.40;54.33;;;;;;;0.23;80.40;101488.33;123447;1099;104283;-79
2022/12/31 04:24:10;;;;;;;91.00;52.40;;;;;;;0.22;80.92;101499.44;123476;1099;104361;-79
2022/12/31 04:26:42;;;;;;;93.03;54.23;;;;;;;0.21;81.12;101499.30;123513;1099;104345;-79
2022/12/31 04:29:14;;;;;;;96.45;54.90;;;;;;;0.20;80.81;101494.88;123507;1099;104415;-79
2022/12/31 04:31:45;;;;;;;97.55;55.20;;;;;;;0.21;81.19;101496.71;123498;1099;104393;-79
2022/12/31 04:34:16;;;;;;;100.40;60.13;;;;;;;0.24;81.08;101505.64;123503;1099;104354;-79
2022/12/31 04:36:47;;;;;;;102.23;59.00;;;;;;;0.25;81.19;101516.86;123478;1098;104686;-79
2022/12/31 04:39:18;;;;;;;106.53;60.30;;;;;;;0.26;81.20;101509.26;123506;1098;104322;-79
2022/12/31 04:41:50;;;;;;;101.00;58.20;;;;;;;0.28;80.78;101507.75;123496;1099;104380;-79
2022/12/31 04:44:22;;;;;;;98.37;54.93;;;;;;;0.31;81.04;101512.27;123425;1099;104334;-79
2022/12/31 04:46:53;;;;;;;96.63;54.97;;;;;;;0.32;80.80;101519.27;123531;1099;104245;-79
2022/12/31 04:49:25;;;;;;;96.85;54.95;;;;;;;0.29;80.58;101512.13;123492;1099;104379;-79
2022/12/31 04:51:56;;;;;;;101.30;58.60;;;;;;;0.27;80.83;101513.67;123499;1099;104386;-79
2022/12/31 04:54:27;;;;;;;102.13;57.67;;;;;;;0.26;80.79;101518.69;123503;1099;104246;-79
2022/12/31 04:56:58;;;;;;;106.90;59.67;;;;;;;0.25;80.61;101524.61;123515;1099;104306;-80
2022/12/31 04:59:30;;;;;;;103.67;58.87;;;;;;;0.25;81.17;101522.95;123463;1099;104760;-79
2022/12/31 05:02:01;;;;;;;97.03;55.83;;;;;;;0.23;81.16;101534.79;123449;1099;104303;-80
2022/12/31 05:04:32;;;;;;;99.00;55.63;;;;;;;0.20;81.34;101537.08;123517;1099;104437;-79
2022/12/31 05:07:03;;;;;;;101.57;56.07;;;;;;;0.19;81.17;101530.12;123486;1099;104379;-79
2022/12/31 05:09:35;;;;;;;93.80;55.27;;;;;;;0.20;80.66;101534.50;123497;1099;104309;-80
2022/12/31 05:12:07;;;;;;;97.75;57.45;;;;;;;0.23;81.47;101526.14;123417;1099;105687;-80
2022/12/31 05:14:38;;;;;;;102.83;57.43;;;;;;;0.25;80.85;101519.44;123442;1099;104687;-79
2022/12/31 05:17:09;;;;;;;102.80;56.93;;;;;;;0.26;81.41;101526.44;123469;1099;104424;-79
2022/12/31 05:19:40;;;;;;;104.73;57.60;;;;;;;0.25;81.47;101527.19;123429;1098;104303;-79
2022/12/31 05:22:30;;;;;;;94.35;55.40;;;;;;;0.26;81.06;101535.08;123430;1099;104293;-79
2022/12/31 05:25:01;;;;;;;103.43;59.53;;;;;;;0.26;80.87;101547.98;123459;1099;104706;-80
2022/12/31 05:27:33;;;;;;;97.95;56.95;;;;;;;0.26;81.26;101560.00;123429;1099;104364;-79
2022/12/31 05:30:05;;;;;;;104.20;59.40;;;;;;;0.26;81.12;101555.73;123487;1099;104848;-80
2022/12/31 05:32:37;;;;;;;100.70;58.80;;;;;;;0.26;81.16;101563.47;123481;1099;104405;-79
2022/12/31 05:35:10;;;;;;;100.33;57.07;;;;;;;0.22;81.41;101557.88;123449;1099;104374;-79
2022/12/31 05:37:41;;;;;;;106.80;58.50;;;;;;;0.19;81.58;101558.52;123525;1098;104319;-79
2022/12/31 05:40:13;;;;;;;96.80;57.63;;;;;;;0.17;81.93;101555.80;123483;1099;104249;-80
2022/12/31 05:42:45;;;;;;;109.57;62.17;;;;;;;0.13;81.29;101552.78;123487;1099;104274;-80
2022/12/31 05:45:17;;;;;;;112.30;66.45;;;;;;;0.04;81.22;101557.97;123416;1099;104319;-80
2022/12/31 05:47:49;;;;;;;115.35;65.75;;;;;;;-0.06;81.39;101561.36;123520;1098;104274;-79
2022/12/31 05:50:20;;;;;;;112.20;65.63;;;;;;;-0.08;81.04;101561.97;123444;1098;104348;-79
2022/12/31 05:52:55;;;;;;;118.33;68.13;;;;;;;-0.09;81.17;101558.48;123153;1099;104302;-78
2022/12/31 05:55:27;;;;;;;112.47;67.60;;;;;;;-0.12;81.06;101563.36;123435;1099;104354;-80
2022/12/31 05:57:58;;;;;;;117.57;68.77;;;;;;;-0.14;81.04;101566.54;123506;1099;104537;-80
2022/12/31 06:00:29;;;;;;;118.93;67.87;;;;;;;-0.15;80.95;101573.38;123488;1099;104278;-79
2022/12/31 06:03:00;;;;;;;119.20;70.77;;;;;;;-0.13;81.59;101577.01;123476;1099;104237;-79
2022/12/31 06:05:32;;;;;;;123.63;70.90;;;;;;;-0.11;81.06;101578.09;123445;1099;104268;-79
2022/12/31 06:08:03;;;;;;;122.33;72.33;;;;;;;-0.07;81.62;101572.44;123484;1099;104357;-79
2022/12/31 06:10:34;;;;;;;124.30;72.97;;;;;;;-0.02;81.41;101586.70;123455;1098;104409;-78
2022/12/31 06:13:05;;;;;;;117.80;69.60;;;;;;;0.02;81.25;101592.13;123492;1099;104316;-80
2022/12/31 06:15:39;;;;;;;118.93;68.40;;;;;;;0.05;80.89;101589.84;123451;1098;104319;-78
2022/12/31 06:18:10;;;;;;;116.97;68.28;;;;;;;0.08;81.46;101598.80;123502;1099;104255;-79
2022/12/31 06:20:41;;;;;;;109.83;63.67;;;;;;;0.10;81.46;101598.95;123490;1099;104254;-78
2022/12/31 06:23:13;;;;;;;114.87;67.77;;;;;;;0.11;81.11;101603.33;123500;1099;104335;-78
2022/12/31 06:25:44;;;;;;;116.07;66.60;;;;;;;0.14;81.58;101595.87;123194;1099;104329;-79
2022/12/31 06:28:16;;;;;;;108.33;65.90;;;;;;;0.17;81.83;101601.33;123477;1099;104727;-78
2022/12/31 06:30:47;;;;;;;116.27;66.87;;;;;;;0.22;81.75;101613.02;123438;1098;104355;-79
2022/12/31 06:33:18;;;;;;;111.03;63.90;;;;;;;0.27;81.64;101610.88;123492;1099;104172;-78
2022/12/31 06:35:54;;;;;;;102.63;58.73;;;;;;;0.35;81.73;101610.81;123513;1099;104386;-79
2022/12/31 06:38:26;;;;;;;103.00;60.55;;;;;;;0.42;81.95;101608.81;123483;1098;104315;-78
2022/12/31 06:40:57;;;;;;;106.90;62.97;;;;;;;0.52;81.76;101616.67;123490;1098;104281;-78
2022/12/31 06:43:29;;;;;;;108.23;64.10;;;;;;;0.60;81.83;101618.28;123518;1098;104280;-79
2022/12/31 06:46:03;;;;;;;104.50;61.60;;;;;;;0.68;81.75;101614.73;123589;1099;104313;-79
2022/12/31 06:48:35;;;;;;;101.50;59.93;;;;;;;0.75;81.62;101605.90;123484;1099;104478;-79
2022/12/31 06:51:09;;;;;;;98.00;60.00;;;;;;;0.79;81.56;101614.83;123505;1099;104280;-79
2022/12/31 06:53:40;;;;;;;102.85;59.13;;;;;;;0.81;81.72;101611.63;123468;1099;104277;-79
2022/12/31 06:56:18;;;;;;;105.07;60.27;;;;;;;0.88;81.67;101614.00;123597;1099;104281;-79
2022/12/31 06:58:51;;;;;;;106.20;61.03;;;;;;;0.97;81.97;101613.95;123622;1099;104347;-79
2022/12/31 07:01:49;;;;;;;105.77;63.17;;;;;;;1.05;81.76;101617.23;123655;1099;104248;-79
2022/12/31 07:04:49;;;;;;;111.70;63.17;;;;;;;1.10;81.72;101622.83;123450;1099;104306;-78
2022/12/31 07:07:26;;;;;;;120.97;68.57;;;;;;;1.08;81.71;101618.41;123579;1099;104278;-79
2022/12/31 07:10:06;;;;;;;119.45;71.00;;;;;;;1.13;81.99;101615.35;123617;1099;104274;-79
2022/12/31 07:12:51;;;;;;;116.37;69.70;;;;;;;1.19;81.69;101616.81;123465;1099;104271;-78
2022/12/31 07:15:35;;;;;;;124.87;72.30;;;;;;;1.25;81.99;101619.95;123612;1099;104380;-79
2022/12/31 07:18:15;;;;;;;112.70;69.97;;;;;;;1.34;81.92;101622.48;123569;1099;104380;-79
2022/12/31 07:20:47;;;;;;;117.00;72.23;;;;;;;1.41;82.02;101634.28;123710;1099;104730;-78
2022/12/31 07:23:19;;;;;;;124.87;72.40;;;;;;;1.46;81.86;101617.48;123667;1099;104351;-79
2022/12/31 07:26:00;;;;;;;115.23;69.17;;;;;;;1.55;81.77;101623.48;123851;1099;104274;-80
2022/12/31 07:28:45;;;;;;;115.37;72.53;;;;;;;1.66;82.30;101623.55;123572;1099;104390;-79
2022/12/31 07:31:25;;;;;;;118.63;70.43;;;;;;;1.74;81.96;101623.44;123666;1099;104276;-79
2022/12/31 07:34:01;;;;;;;123.73;70.20;;;;;;;1.82;81.87;101623.23;123673;1099;104232;-79
2022/12/31 07:36:55;;;;;;;124.93;69.87;;;;;;;1.85;82.04;101626.09;123764;1099;104280;-79
2022/12/31 07:39:33;;;;;;;113.00;68.20;;;;;;;1.94;81.76;101630.39;123656;1099;104300;-79
2022/12/31 07:42:11;;;;;;;119.90;71.50;;;;;;;1.96;81.76;101622.76;123711;1099;104255;-79
2022/12/31 07:44:55;;;;;;;125.40;74.03;;;;;;;2.04;82.09;101629.55;123668;1099;104213;-80
2022/12/31 07:47:28;;;;;;;130.90;72.67;;;;;;;2.18;82.22;101632.41;123681;1099;104351;-79
2022/12/31 07:50:00;;;;;;;129.35;74.77;;;;;;;2.28;81.60;101629.86;123696;1098;104379;-79
2022/12/31 07:52:33;;;;;;;136.87;82.60;;;;;;;2.40;82.26;101632.59;123833;1099;104351;-79
2022/12/31 07:55:05;;;;;;;132.03;80.27;;;;;;;2.51;82.31;101622.39;123788;1099;104249;-79
2022/12/31 07:57:43;;;;;;;135.67;84.77;;;;;;;2.65;82.40;101620.98;123731;1099;104374;-79
2022/12/31 08:00:16;;;;;;;145.13;87.03;;;;;;;2.77;82.30;101617.61;123710;1099;104252;-80
2022/12/31 08:03:03;;;;;;;151.20;86.97;;;;;;;2.88;82.71;101606.45;123720;1099;104386;-79
2022/12/31 08:05:44;;;;;;;148.63;87.33;;;;;;;3.01;83.00;101598.04;123682;1099;104415;-79
2022/12/31 08:08:28;;;;;;;134.65;83.75;;;;;;;3.15;82.66;101604.38;123716;1099;104344;-79
2022/12/31 08:11:10;;;;;;;128.65;78.62;;;;;;;3.28;82.31;101601.11;123383;1099;104435;-79
2022/12/31 08:13:42;;;;;;;127.55;79.00;;;;;;;3.39;82.25;101596.00;123596;1099;104363;-79
2022/12/31 08:16:16;;;;;;;125.50;77.10;;;;;;;3.52;82.86;101597.93;123398;1099;104300;-80
2022/12/31 08:18:48;;;;;;;125.27;76.10;;;;;;;3.63;82.19;101603.06;123781;1099;104495;-79
2022/12/31 08:21:31;;;;;;;119.23;73.30;;;;;;;3.75;82.87;101601.47;123311;1099;104388;-79
2022/12/31 08:24:13;;;;;;;113.07;70.53;;;;;;;3.89;82.52;101606.07;123360;1102;104363;-79
2022/12/31 08:26:55;;;;;;;117.30;73.93;;;;;;;4.02;82.46;101607.05;123625;1099;104280;-79
2022/12/31 08:29:39;;;;;;;117.23;73.27;;;;;;;4.15;83.13;101604.66;123644;1099;104318;-79
2022/12/31 08:32:17;;;;;;;117.13;74.13;;;;;;;4.26;82.30;101597.72;123655;1099;104249;-80
2022/12/31 08:34:59;;;;;;;121.17;72.70;;;;;;;4.34;82.37;101600.91;123683;1099;104498;-79
2022/12/31 08:37:37;;;;;;;121.87;74.50;;;;;;;4.38;82.58;101597.75;123783;1099;107036;-80
2022/12/31 08:40:20;;;;;;;115.73;72.23;;;;;;;4.39;81.77;101615.16;123722;1099;104325;-79
2022/12/31 08:43:09;;;;;;;118.50;75.60;;;;;;;4.40;81.75;101599.69;123749;1098;104287;-79
2022/12/31 08:45:46;;;;;;;118.70;76.70;;;;;;;4.45;81.58;101610.45;123723;1099;104226;-79
2022/12/31 08:48:26;;;;;;;130.15;79.00;;;;;;;4.47;81.32;101603.66;123790;1099;104223;-79
2022/12/31 08:50:58;;;;;;;125.07;78.40;;;;;;;4.51;81.96;101605.73;123707;1099;104514;-79
2022/12/31 08:53:31;;;;;;;123.55;78.15;;;;;;;4.56;81.40;101604.38;123967;1099;104273;-79
2022/12/31 08:56:09;;;;;;;129.47;81.97;;;;;;;4.62;81.75;101591.86;123765;1098;104347;-79
2022/12/31 08:58:50;;;;;;;128.10;80.13;;;;;;;4.71;81.87;101583.88;123491;1099;104357;-79
2022/12/31 09:01:27;;;;;;;130.50;82.73;;;;;;;4.80;81.46;101573.24;123887;1098;104261;-80
2022/12/31 09:04:10;;;;;;;139.07;86.27;;;;;;;4.92;82.08;101570.68;123446;1102;104453;-79
2022/12/31 09:06:49;;;;;;;130.03;84.97;;;;;;;5.01;81.42;101569.67;123771;1099;104274;-79
2022/12/31 09:09:29;;;;;;;127.43;81.53;;;;;;;5.13;82.05;101572.30;123608;1098;104351;-79
2022/12/31 09:12:06;;;;;;;131.20;86.07;;;;;;;5.24;81.93;101569.59;123732;1099;104313;-79
2022/12/31 09:14:45;;;;;;;136.63;84.43;;;;;;;5.34;81.95;101567.76;123773;1099;104409;-79
2022/12/31 09:17:36;;;;;;;128.90;84.40;;;;;;;5.44;81.86;101568.44;123894;1098;104287;-79
2022/12/31 09:20:19;;;;;;;127.57;81.13;;;;;;;5.56;81.89;101566.73;123447;1102;104284;-79
2022/12/31 09:22:52;;;;;;;134.67;82.97;;;;;;;5.65;82.16;101558.70;123758;1099;104310;-79
2022/12/31 09:25:25;;;;;;;128.70;84.00;;;;;;;5.73;81.77;101568.89;123718;1099;104227;-79
2022/12/31 09:28:08;;;;;;;131.95;85.70;;;;;;;5.82;81.61;101562.52;123819;1099;104383;-79
2022/12/31 09:30:50;;;;;;;133.33;87.10;;;;;;;5.87;81.33;101556.83;123721;1099;104365;-79
2022/12/31 09:33:47;;;;;;;133.00;87.63;;;;;;;5.97;81.76;101540.20;123658;1099;104262;-79
2022/12/31 09:36:25;;;;;;;130.03;86.53;;;;;;;6.07;81.67;101539.14;123705;1099;104248;-79
2022/12/31 09:39:05;;;;;;;131.65;84.80;;;;;;;6.17;81.97;101536.41;123773;1099;104683;-80
2022/12/31 09:42:02;;;;;;;133.27;85.30;;;;;;;6.27;81.96;101524.91;123736;1099;104304;-79
2022/12/31 09:45:04;;;;;;;120.07;78.67;;;;;;;6.38;81.85;101510.01;123638;1099;104251;-79
2022/12/31 09:48:00;;;;;;;121.17;78.10;;;;;;;6.48;81.95;101510.74;123623;1099;104232;-79
2022/12/31 09:50:54;;;;;;;124.73;76.73;;;;;;;6.59;81.96;101492.30;123510;1099;104278;-79
2022/12/31 09:53:36;;;;;;;120.57;77.03;;;;;;;6.70;81.96;101482.59;123842;1099;104267;-79
2022/12/31 09:56:17;;;;;;;124.33;77.43;;;;;;;6.80;82.19;101479.80;123854;1099;104245;-80
2022/12/31 09:58:57;;;;;;;117.10;74.10;;;;;;;6.90;81.94;101478.70;123752;1099;104399;-80
2022/12/31 10:01:42;;;;;;;113.93;73.77;;;;;;;6.99;81.88;101468.87;123870;1099;104696;-80
2022/12/31 10:04:40;;;;;;;111.97;70.77;;;;;;;7.08;81.67;101474.69;123819;1099;104415;-79
2022/12/31 10:07:25;;;;;;;113.17;72.87;;;;;;;7.13;81.41;101473.27;123786;1099;104290;-79
2022/12/31 10:10:05;;;;;;;111.80;70.65;;;;;;;7.18;81.39;101469.28;123765;1098;104226;-79
2022/12/31 10:12:58;;;;;;;114.80;72.47;;;;;;;7.24;81.47;101470.47;123733;1099;104348;-80
2022/12/31 10:16:02;;;;;;;116.00;73.03;;;;;;;7.30;81.28;101479.59;123589;1099;104341;-79
2022/12/31 10:19:00;;;;;;;114.70;71.43;;;;;;;7.36;81.05;101479.09;123791;1099;104249;-79
2022/12/31 10:21:45;;;;;;;112.40;69.85;;;;;;;7.42;81.07;101482.10;123698;1099;104341;-79
2022/12/31 10:24:44;;;;;;;109.03;67.93;;;;;;;7.48;81.10;101487.72;123896;1099;104278;-79
2022/12/31 10:27:38;;;;;;;101.03;66.83;;;;;;;7.55;81.26;101478.55;123788;1099;104367;-80
2022/12/31 10:30:16;;;;;;;104.07;62.30;;;;;;;7.62;81.11;101483.38;123882;1099;104265;-80
2022/12/31 10:33:00;;;;;;;102.33;62.43;;;;;;;7.69;81.04;101489.88;124126;1099;104274;-80
2022/12/31 10:35:42;;;;;;;96.63;60.43;;;;;;;7.73;81.34;101495.39;123942;1098;104274;-80
2022/12/31 10:38:29;;;;;;;93.37;60.20;;;;;;;7.80;80.70;101486.22;123854;1099;104219;-80
2022/12/31 10:41:47;;;;;;;90.53;58.87;;;;;;;7.86;80.94;101476.16;123797;1099;104381;-79
2022/12/31 10:44:53;;;;;;;91.93;55.07;;;;;;;7.92;80.86;101481.77;123582;1102;104696;-80
2022/12/31 10:47:44;;;;;;;95.90;53.87;;;;;;;7.99;80.77;101475.19;123599;1102;104345;-80
2022/12/31 10:50:49;;;;;;;91.97;54.73;;;;;;;8.01;80.52;101464.83;123861;1099;104357;-79
2022/12/31 10:53:46;;;;;;;85.20;52.95;;;;;;;8.09;81.19;101461.00;123957;1099;104465;-80
2022/12/31 10:56:51;;;;;;;89.00;52.23;;;;;;;8.16;81.24;101468.39;123853;1099;104437;-80
2022/12/31 11:00:11;;;;;;;86.75;55.43;;;;;;;8.24;81.10;101469.78;123893;1099;104260;-80
2022/12/31 11:03:18;;;;;;;88.10;52.83;;;;;;;8.34;81.13;101462.49;123851;1099;104772;-79
2022/12/31 11:06:28;;;;;;;84.47;52.40;;;;;;;8.43;80.99;101465.62;124036;1099;104240;-80
2022/12/31 11:09:34;;;;;;;79.13;49.57;;;;;;;8.49;80.75;101466.02;123950;1099;104475;-80
2022/12/31 11:12:17;;;;;;;88.77;52.50;;;;;;;8.57;81.08;101459.56;123961;1099;104401;-79
2022/12/31 11:15:18;;;;;;;91.53;51.48;;;;;;;8.61;81.18;101460.63;123870;1099;104299;-80
2022/12/31 11:18:00;;;;;;;77.95;47.65;;;;;;;8.66;81.25;101447.82;123914;1099;104307;-80
2022/12/31 11:20:55;;;;;;;73.75;46.00;;;;;;;8.70;81.24;101444.58;124047;1099;104258;-80
2022/12/31 11:23:41;;;;;;;50.80;29.63;;;;;;;8.83;81.23;101436.61;123986;1099;104255;-80
2022/12/31 11:26:22;;;;;;;52.27;29.80;;;;;;;8.96;80.83;101433.90;123914;1099;104392;-80
2022/12/31 11:29:05;;;;;;;50.03;27.70;;;;;;;9.03;81.10;101431.62;123967;1099;104248;-79
2022/12/31 11:31:59;;;;;;;41.17;24.37;;;;;;;9.07;80.96;101433.58;123792;1099;112132;-80
2022/12/31 11:35:02;;;;;;;37.88;20.20;;;;;;;9.12;81.35;101425.19;124008;1099;104242;-80
2022/12/31 11:37:42;;;;;;;32.97;18.97;;;;;;;9.21;81.47;101430.05;123953;1099;104194;-79
2022/12/31 11:40:36;;;;;;;33.17;18.83;;;;;;;9.28;81.06;101437.41;123925;1099;104342;-80
2022/12/31 11:43:18;;;;;;;33.05;16.42;;;;;;;9.36;81.31;101440.46;123856;1099;104354;-80
2022/12/31 11:46:34;;;;;;;28.97;15.87;;;;;;;9.42;80.83;101438.19;123842;1099;104367;-79
2022/12/31 11:49:12;;;;;;;;;;;;;;;9.47;80.43;101435.81;123669;1102;104332;-80